createdAt,value
2016-12-06T00:00:10.408Z,85.28
2016-12-06T00:01:22.160Z,85.38
2016-12-06T00:02:33.660Z,85.47
2016-12-06T00:03:45.246Z,85.66
2016-12-06T00:04:56.934Z,85.66
2016-12-06T00:06:09.334Z,85.95
2016-12-06T00:07:20.632Z,85.57
2016-12-06T00:08:32.184Z,85.57
2016-12-06T00:09:44.158Z,85.28
2016-12-06T00:10:55.618Z,85.57
2016-12-06T00:12:07.413Z,85.47
2016-12-06T00:13:18.721Z,85.47
2016-12-06T00:14:44.802Z,86.04
2016-12-06T00:15:56.700Z,85.85
2016-12-06T00:17:08.096Z,85.57
2016-12-06T00:18:19.840Z,85.57
2016-12-06T00:19:31.318Z,85.85
2016-12-06T00:20:42.728Z,85.66
2016-12-06T00:21:54.766Z,85.47
2016-12-06T00:23:05.965Z,85.66
2016-12-06T00:24:18.063Z,85.47
2016-12-06T00:25:29.430Z,85.47
2016-12-06T00:26:40.846Z,85.47
2016-12-06T00:27:52.525Z,85.95
2016-12-06T00:29:04.090Z,85.47
2016-12-06T00:30:16.265Z,86.23
2016-12-06T00:31:28.084Z,86.33
2016-12-06T00:32:39.715Z,86.61
2016-12-06T00:33:51.451Z,86.23
2016-12-06T00:35:03.161Z,86.23
2016-12-06T00:36:14.370Z,86.04
2016-12-06T00:37:26.020Z,86.04
2016-12-06T00:38:37.841Z,86.33
2016-12-06T00:39:51.671Z,86.61
2016-12-06T00:41:03.081Z,86.23
2016-12-06T00:42:14.757Z,86.14
2016-12-06T00:43:26.394Z,86.33
2016-12-06T00:44:37.773Z,86.14
2016-12-06T00:45:49.597Z,86.23
2016-12-06T00:47:01.109Z,86.42
2016-12-06T00:48:12.843Z,86.33
2016-12-06T00:49:24.592Z,86.61
2016-12-06T00:50:36.537Z,86.33
2016-12-06T00:51:48.569Z,86.61
2016-12-06T00:52:59.922Z,86.61
2016-12-06T00:54:11.389Z,86.23
2016-12-06T00:55:22.911Z,86.52
2016-12-06T00:56:34.441Z,86.52
2016-12-06T00:57:46.377Z,86.23
2016-12-06T00:58:58.186Z,86.61
2016-12-06T01:00:09.788Z,86.61
2016-12-06T01:01:21.970Z,86.52
2016-12-06T01:02:33.484Z,86.04
2016-12-06T01:03:45.155Z,86.33
2016-12-06T01:04:57.313Z,86.14
2016-12-06T01:06:08.952Z,87.08
2016-12-06T01:07:20.372Z,86.9
2016-12-06T01:08:31.811Z,87.08
2016-12-06T01:09:43.532Z,87.55
2016-12-06T01:10:55.342Z,87.37
2016-12-06T01:12:06.804Z,87.08
2016-12-06T01:13:18.309Z,87.18
2016-12-06T01:14:29.750Z,86.8
2016-12-06T01:15:41.597Z,86.71
2016-12-06T01:16:52.875Z,87.08
2016-12-06T01:18:04.580Z,86.99
2016-12-06T01:19:16.267Z,87.37
2016-12-06T01:20:28.115Z,87.18
2016-12-06T01:21:39.856Z,87.08
2016-12-06T01:22:51.353Z,87.18
2016-12-06T01:24:02.933Z,86.61
2016-12-06T01:25:14.946Z,86.33
2016-12-06T01:26:26.542Z,86.9
2016-12-06T01:27:38.276Z,86.8
2016-12-06T01:28:49.548Z,86.42
2016-12-06T01:30:00.807Z,86.71
2016-12-06T01:31:12.826Z,86.42
2016-12-06T01:32:24.266Z,86.33
2016-12-06T01:33:35.855Z,86.8
2016-12-06T01:34:47.099Z,86.99
2016-12-06T01:35:58.505Z,86.8
2016-12-06T01:37:10.287Z,86.42
2016-12-06T01:38:21.713Z,86.33
2016-12-06T01:39:33.457Z,86.71
2016-12-06T01:40:45.098Z,87.08
2016-12-06T01:41:56.804Z,86.99
2016-12-06T01:43:08.597Z,86.8
2016-12-06T01:44:19.984Z,87.37
2016-12-06T01:45:31.602Z,87.18
2016-12-06T01:46:43.037Z,87.37
2016-12-06T01:47:54.494Z,87.18
2016-12-06T01:49:06.174Z,87.37
2016-12-06T01:50:17.903Z,87.37
2016-12-06T01:51:29.621Z,87.74
2016-12-06T01:52:41.059Z,87.46
2016-12-06T01:53:54.881Z,87.18
2016-12-06T01:55:06.202Z,86.99
2016-12-06T01:56:17.949Z,87.08
2016-12-06T01:57:29.548Z,87.18
2016-12-06T01:58:41.128Z,87.55
2016-12-06T01:59:52.406Z,87.37
2016-12-06T02:01:03.769Z,87.08
2016-12-06T02:02:15.641Z,86.52
2016-12-06T02:03:27.350Z,87.46
2016-12-06T02:04:38.620Z,87.18
2016-12-06T02:05:50.007Z,87.18
2016-12-06T02:07:01.554Z,86.9
2016-12-06T02:08:12.837Z,86.8
2016-12-06T02:09:24.698Z,86.71
2016-12-06T02:10:35.951Z,86.99
2016-12-06T02:11:47.322Z,87.37
2016-12-06T02:12:58.841Z,86.52
2016-12-06T02:14:10.457Z,86.52
2016-12-06T02:15:22.165Z,87.37
2016-12-06T02:16:33.907Z,87.27
2016-12-06T02:17:45.185Z,87.46
2016-12-06T02:18:56.686Z,87.46
2016-12-06T02:20:08.120Z,87.55
2016-12-06T02:21:19.791Z,87.74
2016-12-06T02:22:31.674Z,87.84
2016-12-06T02:23:43.622Z,87.93
2016-12-06T02:24:55.063Z,87.79
2016-12-06T02:26:06.372Z,87.65
2016-12-06T02:27:18.427Z,87.37
2016-12-06T02:28:29.719Z,87.32
2016-12-06T02:29:41.779Z,87.7
2016-12-06T02:30:53.618Z,87.93
2016-12-06T02:32:04.960Z,87.7
2016-12-06T02:33:16.957Z,88.41
2016-12-06T02:34:28.625Z,88.46
2016-12-06T02:35:40.662Z,88.27
2016-12-06T02:36:52.525Z,88.08
2016-12-06T02:38:04.325Z,88.27
2016-12-06T02:39:16.823Z,89.22
2016-12-06T02:40:29.307Z,88.84
2016-12-06T02:41:41.891Z,88.17
2016-12-06T02:42:53.981Z,88.22
2016-12-06T02:44:07.578Z,88.12
2016-12-06T02:45:21.161Z,87.65
2016-12-06T02:46:35.487Z,87.74
2016-12-06T02:47:47.893Z,87.55
2016-12-06T02:48:59.897Z,86.99
2016-12-06T02:50:12.731Z,86.99
2016-12-06T02:52:52.716Z,87.18
2016-12-06T02:54:06.087Z,86.99
2016-12-06T02:55:18.353Z,87.08
2016-12-06T02:56:31.785Z,87.27
2016-12-06T02:57:45.070Z,87.18
2016-12-06T02:58:57.783Z,86.99
2016-12-06T03:00:09.254Z,87.08
2016-12-06T03:01:23.979Z,87.08
2016-12-06T03:02:38.606Z,87.08
2016-12-06T03:03:54.049Z,87.55
2016-12-06T03:05:07.211Z,86.9
2016-12-06T03:06:21.438Z,87.18
2016-12-06T03:07:37.670Z,87.18
2016-12-06T03:08:52.132Z,86.52
2016-12-06T03:10:04.329Z,86.99
2016-12-06T03:11:16.243Z,87.18
2016-12-06T03:12:28.445Z,87.46
2016-12-06T03:13:41.380Z,87.55
2016-12-06T03:14:54.996Z,87.55
2016-12-06T03:16:11.577Z,87.55
2016-12-06T03:17:23.197Z,87.08
2016-12-06T03:18:34.979Z,86.99
2016-12-06T03:19:46.530Z,87.08
2016-12-06T03:21:13.211Z,87.18
2016-12-06T03:22:25.443Z,87.18
2016-12-06T03:23:38.416Z,87.27
2016-12-06T03:24:50.747Z,87.18
2016-12-06T03:26:03.499Z,86.99
2016-12-06T03:27:16.179Z,87.18
2016-12-06T03:28:30.494Z,87.18
2016-12-06T03:29:42.811Z,87.08
2016-12-06T03:30:56.561Z,87.18
2016-12-06T03:32:08.434Z,86.8
2016-12-06T03:33:24.381Z,86.99
2016-12-06T03:34:42.457Z,86.8
2016-12-06T03:35:58.576Z,86.42
2016-12-06T03:37:15.317Z,86.42
2016-12-06T03:38:32.994Z,86.61
2016-12-06T03:39:49.046Z,86.9
2016-12-06T03:41:05.734Z,86.61
2016-12-06T03:42:20.376Z,86.52
2016-12-06T03:43:35.901Z,86.23
2016-12-06T03:44:49.214Z,86.33
2016-12-06T03:46:05.954Z,86.04
2016-12-06T03:47:20.896Z,86.04
2016-12-06T03:48:38.789Z,85.85
2016-12-06T03:49:56.238Z,86.71
2016-12-06T03:51:11.685Z,86.04
2016-12-06T03:52:26.790Z,86.04
2016-12-06T03:53:39.679Z,86.04
2016-12-06T03:54:57.878Z,85.66
2016-12-06T03:56:15.135Z,85.38
2016-12-06T03:57:31.614Z,85.47
2016-12-06T03:58:50.648Z,85.47
2016-12-06T04:00:07.629Z,85.66
2016-12-06T04:01:27.925Z,85.95
2016-12-06T04:02:45.318Z,85.66
2016-12-06T04:04:02.533Z,85.76
2016-12-06T04:05:19.383Z,85.95
2016-12-06T04:06:37.304Z,85.57
2016-12-06T04:07:54.491Z,85.76
2016-12-06T04:09:11.347Z,85.66
2016-12-06T04:10:28.609Z,85.66
2016-12-06T04:11:45.048Z,85.66
2016-12-06T04:12:59.428Z,85.85
2016-12-06T04:14:11.151Z,85.85
2016-12-06T04:15:23.630Z,85.19
2016-12-06T04:16:42.452Z,85.85
2016-12-06T04:17:57.789Z,85.76
2016-12-06T04:19:29.193Z,85.66
2016-12-06T04:20:48.734Z,86.33
2016-12-06T04:22:06.960Z,85.85
2016-12-06T04:23:27.156Z,85.76
2016-12-06T04:24:45.049Z,86.23
2016-12-06T04:25:58.392Z,87.08
2016-12-06T04:27:12.350Z,87.08
2016-12-06T04:28:24.112Z,87.08
2016-12-06T04:29:35.861Z,87.37
2016-12-06T04:30:47.309Z,86.61
2016-12-06T04:31:59.230Z,86.9
2016-12-06T04:33:11.301Z,86.42
2016-12-06T04:34:25.106Z,86.71
2016-12-06T04:35:38.836Z,86.42
2016-12-06T04:36:56.119Z,86.42
2016-12-06T04:38:11.643Z,86.9
2016-12-06T04:39:24.772Z,86.52
2016-12-06T04:40:38.002Z,86.23
2016-12-06T04:41:49.959Z,86.61
2016-12-06T04:43:01.645Z,86.33
2016-12-06T04:44:13.742Z,86.71
2016-12-06T04:45:25.905Z,87.08
2016-12-06T04:46:37.581Z,86.99
2016-12-06T04:47:49.110Z,87.37
2016-12-06T04:49:01.159Z,87.08
2016-12-06T04:50:12.865Z,87.08
2016-12-06T04:51:25.546Z,86.52
2016-12-06T04:52:37.966Z,86.42
2016-12-06T04:53:49.964Z,86.61
2016-12-06T04:55:02.868Z,86.33
2016-12-06T04:56:20.868Z,86.52
2016-12-06T04:57:34.145Z,86.52
2016-12-06T04:58:46.306Z,86.14
2016-12-06T04:59:59.336Z,86.14
2016-12-06T05:01:15.519Z,86.42
2016-12-06T05:02:48.689Z,85.95
2016-12-06T05:04:07.535Z,85.47
2016-12-06T05:05:19.738Z,85.76
2016-12-06T05:06:31.964Z,85.1
2016-12-06T05:07:47.172Z,84.91
2016-12-06T05:09:02.382Z,84.72
2016-12-06T05:10:14.784Z,84.53
2016-12-06T05:11:30.375Z,84.25
2016-12-06T05:12:41.743Z,84.16
2016-12-06T05:13:53.352Z,84.25
2016-12-06T05:15:04.959Z,84.06
2016-12-06T05:16:16.605Z,84.16
2016-12-06T05:17:27.996Z,84.34
2016-12-06T05:18:42.845Z,84.16
2016-12-06T05:19:56.005Z,84.06
2016-12-06T05:21:09.743Z,84.16
2016-12-06T05:22:23.051Z,84.16
2016-12-06T05:23:37.631Z,84.25
2016-12-06T05:24:52.809Z,84.44
2016-12-06T05:26:06.778Z,83.97
2016-12-06T05:27:22.313Z,84.25
2016-12-06T05:28:34.575Z,84.25
2016-12-06T05:29:45.897Z,84.16
2016-12-06T05:30:57.170Z,83.68
2016-12-06T05:32:09.036Z,83.11
2016-12-06T05:33:20.612Z,82.73
2016-12-06T05:34:32.391Z,82.87
2016-12-06T05:35:44.056Z,82.4
2016-12-06T05:36:56.803Z,82.35
2016-12-06T05:38:08.540Z,82.5
2016-12-06T05:39:20.687Z,82.02
2016-12-06T05:40:33.208Z,82.12
2016-12-06T05:41:44.811Z,82.31
2016-12-06T05:42:58.970Z,82.02
2016-12-06T05:44:10.436Z,81.98
2016-12-06T05:45:21.788Z,82.83
2016-12-06T05:46:33.788Z,81.98
2016-12-06T05:47:45.965Z,82.45
2016-12-06T05:48:57.575Z,82.17
2016-12-06T05:50:23.860Z,82.17
2016-12-06T05:51:35.344Z,82.45
2016-12-06T05:52:47.061Z,83.02
2016-12-06T05:53:58.783Z,82.83
2016-12-06T05:55:10.246Z,82.45
2016-12-06T05:56:21.786Z,82.45
2016-12-06T05:57:33.322Z,82.07
2016-12-06T05:58:45.421Z,82.07
2016-12-06T05:59:57.271Z,81.98
2016-12-06T06:01:09.057Z,81.88
2016-12-06T06:02:20.899Z,82.64
2016-12-06T06:03:33.338Z,82.07
2016-12-06T06:04:46.595Z,81.98
2016-12-06T06:05:58.993Z,82.07
2016-12-06T06:07:12.630Z,81.98
2016-12-06T06:08:27.489Z,82.54
2016-12-06T06:09:40.702Z,82.73
2016-12-06T06:10:53.803Z,82.64
2016-12-06T06:12:05.454Z,83.02
2016-12-06T06:13:16.879Z,83.02
2016-12-06T06:14:28.734Z,82.92
2016-12-06T06:15:41.035Z,83.02
2016-12-06T06:16:53.609Z,83.02
2016-12-06T06:18:05.260Z,83.4
2016-12-06T06:19:16.819Z,83.4
2016-12-06T06:20:29.346Z,83.02
2016-12-06T06:21:42.086Z,83.3
2016-12-06T06:22:54.567Z,83.11
2016-12-06T06:24:06.654Z,82.83
2016-12-06T06:25:20.454Z,83.49
2016-12-06T06:26:33.700Z,83.78
2016-12-06T06:27:46.382Z,83.49
2016-12-06T06:29:01.972Z,83.68
2016-12-06T06:30:16.219Z,83.78
2016-12-06T06:31:29.714Z,83.4
2016-12-06T06:32:43.424Z,83.11
2016-12-06T06:33:57.211Z,83.02
2016-12-06T06:35:09.355Z,82.73
2016-12-06T06:36:20.802Z,82.54
2016-12-06T06:37:33.667Z,82.45
2016-12-06T06:38:47.905Z,81.98
2016-12-06T06:40:02.376Z,82.17
2016-12-06T06:41:19.154Z,81.88
2016-12-06T06:42:34.705Z,82.45
2016-12-06T06:43:51.380Z,82.92
2016-12-06T06:45:07.317Z,82.83
2016-12-06T06:46:21.859Z,83.02
2016-12-06T06:49:01.189Z,82.92
2016-12-06T06:50:13.246Z,82.64
2016-12-06T06:51:24.859Z,83.02
2016-12-06T06:52:36.799Z,83.11
2016-12-06T06:53:48.557Z,83.59
2016-12-06T06:54:59.943Z,83.59
2016-12-06T06:56:11.703Z,83.68
2016-12-06T06:57:23.247Z,83.59
2016-12-06T06:58:37.005Z,83.78
2016-12-06T06:59:48.855Z,83.78
2016-12-06T07:01:00.453Z,83.78
2016-12-06T07:02:12.151Z,83.4
2016-12-06T07:03:23.892Z,83.49
2016-12-06T07:04:35.617Z,83.4
2016-12-06T07:05:47.157Z,83.78
2016-12-06T07:06:58.468Z,83.02
2016-12-06T07:08:09.744Z,83.11
2016-12-06T07:09:21.202Z,82.92
2016-12-06T07:10:32.749Z,83.87
2016-12-06T07:11:44.395Z,83.49
2016-12-06T07:12:55.781Z,83.11
2016-12-06T07:14:07.841Z,83.78
2016-12-06T07:15:19.451Z,82.92
2016-12-06T07:16:31.132Z,83.02
2016-12-06T07:17:42.705Z,83.02
2016-12-06T07:18:54.570Z,83.49
2016-12-06T07:20:06.663Z,83.68
2016-12-06T07:21:18.806Z,83.49
2016-12-06T07:22:30.453Z,83.87
2016-12-06T07:23:42.105Z,83.68
2016-12-06T07:24:53.733Z,84.44
2016-12-06T07:26:05.869Z,84.34
2016-12-06T07:27:17.331Z,84.25
2016-12-06T07:28:29.058Z,84.44
2016-12-06T07:29:40.445Z,83.87
2016-12-06T07:30:51.911Z,83.97
2016-12-06T07:32:03.234Z,84.06
2016-12-06T07:33:15.225Z,83.78
2016-12-06T07:34:26.702Z,83.59
2016-12-06T07:35:38.384Z,83.68
2016-12-06T07:36:49.745Z,83.68
2016-12-06T07:38:01.270Z,83.49
2016-12-06T07:39:12.981Z,83.78
2016-12-06T07:40:24.743Z,83.87
2016-12-06T07:41:36.105Z,83.97
2016-12-06T07:42:47.533Z,84.06
2016-12-06T07:43:59.397Z,83.68
2016-12-06T07:45:11.378Z,83.87
2016-12-06T07:46:22.936Z,83.78
2016-12-06T07:47:34.341Z,83.59
2016-12-06T07:48:45.776Z,83.78
2016-12-06T07:49:57.089Z,83.68
2016-12-06T07:51:09.203Z,83.11
2016-12-06T07:52:20.899Z,83.02
2016-12-06T07:53:32.802Z,83.21
2016-12-06T07:54:44.192Z,83.68
2016-12-06T07:55:55.590Z,83.4
2016-12-06T07:57:07.271Z,83.3
2016-12-06T07:58:19.228Z,83.78
2016-12-06T07:59:30.719Z,84.44
2016-12-06T08:00:42.262Z,84.44
2016-12-06T08:01:53.616Z,84.34
2016-12-06T08:03:04.964Z,83.87
2016-12-06T08:04:16.673Z,83.4
2016-12-06T08:05:27.977Z,83.59
2016-12-06T08:06:39.933Z,83.49
2016-12-06T08:07:51.182Z,83.59
2016-12-06T08:09:03.014Z,83.59
2016-12-06T08:10:15.154Z,83.68
2016-12-06T08:11:26.607Z,83.11
2016-12-06T08:12:40.628Z,83.21
2016-12-06T08:13:52.299Z,83.3
2016-12-06T08:15:03.603Z,83.21
2016-12-06T08:16:15.164Z,83.49
2016-12-06T08:17:26.581Z,85.19
2016-12-06T08:18:38.385Z,86.09
2016-12-06T08:19:50.150Z,83.91
2016-12-06T08:21:01.810Z,82.4
2016-12-06T08:22:13.904Z,81.74
2016-12-06T08:23:25.551Z,81.36
2016-12-06T08:24:37.326Z,81.83
2016-12-06T08:25:48.945Z,81.64
2016-12-06T08:27:00.610Z,81.64
2016-12-06T08:28:12.847Z,81.74
2016-12-06T08:29:24.893Z,82.31
2016-12-06T08:30:36.403Z,84.39
2016-12-06T08:31:47.808Z,83.53
2016-12-06T08:32:59.133Z,82.5
2016-12-06T08:34:11.232Z,81.93
2016-12-06T08:35:22.807Z,81.74
2016-12-06T08:36:34.449Z,81.93
2016-12-06T08:37:46.007Z,81.74
2016-12-06T08:38:57.359Z,81.64
2016-12-06T08:40:09.589Z,81.74
2016-12-06T08:41:20.965Z,81.74
2016-12-06T08:42:32.549Z,82.02
2016-12-06T08:43:44.481Z,82.4
2016-12-06T08:44:55.969Z,83.15
2016-12-06T08:46:07.673Z,83.72
2016-12-06T08:47:18.981Z,83.21
2016-12-06T08:48:30.609Z,83.49
2016-12-06T08:49:42.138Z,83.49
2016-12-06T08:50:53.925Z,83.87
2016-12-06T08:52:05.539Z,84.34
2016-12-06T08:53:16.993Z,84.34
2016-12-06T08:54:28.214Z,84.44
2016-12-06T08:55:39.928Z,84.53
2016-12-06T08:56:51.341Z,84.16
2016-12-06T08:58:03.311Z,84.16
2016-12-06T08:59:14.725Z,84.53
2016-12-06T09:00:26.118Z,84.63
2016-12-06T09:01:38.107Z,84.91
2016-12-06T09:02:49.815Z,85
2016-12-06T09:04:01.641Z,85.57
2016-12-06T09:05:13.068Z,85.76
2016-12-06T09:06:24.554Z,85.66
2016-12-06T09:07:36.268Z,85.66
2016-12-06T09:08:47.596Z,85.85
2016-12-06T09:09:59.555Z,85.95
2016-12-06T09:11:11.437Z,85.28
2016-12-06T09:12:22.754Z,85.1
2016-12-06T09:13:34.155Z,85.19
2016-12-06T09:14:45.708Z,85.1
2016-12-06T09:15:57.732Z,85.1
2016-12-06T09:17:09.076Z,85.19
2016-12-06T09:18:20.597Z,85
2016-12-06T09:19:32.117Z,84.06
2016-12-06T09:20:43.365Z,84.2
2016-12-06T09:21:54.973Z,84.48
2016-12-06T09:23:06.249Z,84.1
2016-12-06T09:24:17.857Z,84.25
2016-12-06T09:25:29.290Z,84.16
2016-12-06T09:26:42.947Z,84.34
2016-12-06T09:27:54.710Z,84.34
2016-12-06T09:29:06.546Z,84.25
2016-12-06T09:30:17.900Z,83.82
2016-12-06T09:31:29.526Z,84.1
2016-12-06T09:32:40.734Z,83.82
2016-12-06T09:33:52.367Z,83.34
2016-12-06T09:35:04.401Z,83.63
2016-12-06T09:36:15.681Z,83.72
2016-12-06T09:37:27.188Z,84.01
2016-12-06T09:38:38.446Z,84.44
2016-12-06T09:39:50.768Z,83.97
2016-12-06T09:41:02.038Z,84.16
2016-12-06T09:42:13.636Z,84.34
2016-12-06T09:43:25.118Z,84.34
2016-12-06T09:44:36.518Z,84.29
2016-12-06T09:45:48.348Z,83.82
2016-12-06T09:46:59.814Z,83.44
2016-12-06T09:48:11.637Z,83.53
2016-12-06T09:49:23.457Z,83.25
2016-12-06T09:50:35.342Z,83.53
2016-12-06T09:51:46.810Z,83.34
2016-12-06T09:52:58.229Z,82.97
2016-12-06T09:54:09.560Z,83.25
2016-12-06T09:55:21.161Z,83.06
2016-12-06T09:57:59.054Z,83.06
2016-12-06T09:59:25.217Z,82.59
2016-12-06T10:00:37.018Z,83.91
2016-12-06T10:01:48.468Z,83.72
2016-12-06T10:03:00.314Z,83.63
2016-12-06T10:04:11.907Z,83.34
2016-12-06T10:05:23.454Z,83.53
2016-12-06T10:06:35.067Z,83.63
2016-12-06T10:07:46.437Z,83.82
2016-12-06T10:08:58.062Z,83.25
2016-12-06T10:10:09.492Z,83.63
2016-12-06T10:11:20.981Z,83.72
2016-12-06T10:12:32.237Z,83.34
2016-12-06T10:15:10.494Z,83.34
2016-12-06T10:16:22.167Z,82.97
2016-12-06T10:17:33.730Z,83.15
2016-12-06T10:18:45.033Z,83.25
2016-12-06T10:19:56.345Z,82.87
2016-12-06T10:21:08.672Z,83.25
2016-12-06T10:22:20.193Z,83.34
2016-12-06T10:23:32.188Z,82.97
2016-12-06T10:24:43.955Z,82.97
2016-12-06T10:25:55.698Z,83.34
2016-12-06T10:27:07.025Z,83.34
2016-12-06T10:28:18.663Z,83.82
2016-12-06T10:29:30.817Z,83.06
2016-12-06T10:30:42.309Z,82.97
2016-12-06T10:32:08.372Z,82.87
2016-12-06T10:33:19.622Z,82.87
2016-12-06T10:34:30.880Z,83.06
2016-12-06T10:35:42.896Z,83.15
2016-12-06T10:36:54.263Z,83.06
2016-12-06T10:38:05.860Z,83.06
2016-12-06T10:39:17.312Z,83.06
2016-12-06T10:40:28.999Z,83.06
2016-12-06T10:41:42.764Z,82.78
2016-12-06T10:42:54.386Z,82.97
2016-12-06T10:44:05.831Z,83.34
2016-12-06T10:45:18.050Z,83.25
2016-12-06T10:46:44.362Z,83.34
2016-12-06T10:47:56.456Z,83.25
2016-12-06T10:49:08.176Z,82.78
2016-12-06T10:50:19.841Z,82.97
2016-12-06T10:51:31.320Z,82.97
2016-12-06T10:52:42.659Z,83.06
2016-12-06T10:53:54.359Z,83.63
2016-12-06T10:55:05.891Z,83.15
2016-12-06T10:56:17.730Z,83.34
2016-12-06T10:57:29.094Z,83.15
2016-12-06T10:58:40.671Z,83.15
2016-12-06T10:59:52.449Z,83.63
2016-12-06T11:01:03.982Z,83.63
2016-12-06T11:02:15.798Z,83.44
2016-12-06T11:03:27.270Z,83.34
2016-12-06T11:04:38.892Z,83.34
2016-12-06T11:05:50.530Z,83.82
2016-12-06T11:07:01.816Z,83.34
2016-12-06T11:08:13.559Z,83.15
2016-12-06T11:09:24.842Z,83.25
2016-12-06T11:10:36.725Z,83.82
2016-12-06T11:11:48.424Z,83.53
2016-12-06T11:13:00.119Z,83.72
2016-12-06T11:14:11.628Z,83.06
2016-12-06T11:15:23.304Z,82.59
2016-12-06T11:16:34.901Z,81.93
2016-12-06T11:17:47.077Z,82.4
2016-12-06T11:18:58.460Z,81.74
2016-12-06T11:20:10.598Z,81.64
2016-12-06T11:21:22.366Z,81.36
2016-12-06T11:22:33.969Z,81.55
2016-12-06T11:23:45.948Z,81.55
2016-12-06T11:24:57.403Z,81.64
2016-12-06T11:26:09.095Z,82.02
2016-12-06T11:27:21.220Z,82.31
2016-12-06T11:28:32.590Z,81.93
2016-12-06T11:29:44.186Z,82.21
2016-12-06T11:30:55.680Z,82.21
2016-12-06T11:32:07.028Z,82.21
2016-12-06T11:33:18.694Z,82.68
2016-12-06T11:34:45.307Z,82.68
2016-12-06T11:35:57.287Z,82.87
2016-12-06T11:37:08.661Z,83.06
2016-12-06T11:38:20.259Z,83.06
2016-12-06T11:39:32.060Z,83.34
2016-12-06T11:40:43.906Z,82.97
2016-12-06T11:41:56.968Z,83.34
2016-12-06T11:43:08.804Z,82.87
2016-12-06T11:44:20.348Z,82.87
2016-12-06T11:45:32.175Z,83.06
2016-12-06T11:46:43.526Z,83.72
2016-12-06T11:47:55.543Z,83.82
2016-12-06T11:49:07.466Z,83.63
2016-12-06T11:50:19.244Z,88.26
2016-12-06T11:51:31.354Z,92.38
2016-12-06T11:52:43.113Z,91.05
2016-12-06T11:53:54.869Z,87.21
2016-12-06T11:55:06.202Z,83.76
2016-12-06T11:56:19.798Z,83.1
2016-12-06T11:57:31.675Z,81.87
2016-12-06T11:58:44.383Z,82.25
2016-12-06T11:59:55.947Z,82.34
2016-12-06T12:01:07.464Z,82.15
2016-12-06T12:02:18.885Z,82.5
2016-12-06T12:03:30.113Z,82.87
2016-12-06T12:04:41.702Z,82.21
2016-12-06T12:05:53.401Z,82.44
2016-12-06T12:07:05.007Z,82.78
2016-12-06T12:08:17.743Z,82.4
2016-12-06T12:09:29.262Z,82.68
2016-12-06T12:10:40.842Z,82.97
2016-12-06T12:11:52.821Z,82.97
2016-12-06T12:13:04.929Z,82.87
2016-12-06T12:14:16.589Z,83.15
2016-12-06T12:15:28.387Z,82.87
2016-12-06T12:16:40.200Z,83.15
2016-12-06T12:17:52.140Z,83.06
2016-12-06T12:19:04.485Z,83.06
2016-12-06T12:20:16.354Z,83.15
2016-12-06T12:21:28.170Z,82.97
2016-12-06T12:22:39.474Z,82.97
2016-12-06T12:23:51.007Z,82.68
2016-12-06T12:25:02.589Z,82.68
2016-12-06T12:26:14.168Z,82.4
2016-12-06T12:27:26.330Z,82.78
2016-12-06T12:28:38.107Z,83.15
2016-12-06T12:29:49.624Z,82.97
2016-12-06T12:31:01.433Z,83.06
2016-12-06T12:32:12.701Z,82.97
2016-12-06T12:33:24.155Z,83.25
2016-12-06T12:34:35.684Z,83.34
2016-12-06T12:35:47.767Z,82.97
2016-12-06T12:36:59.378Z,82.78
2016-12-06T12:38:10.873Z,82.97
2016-12-06T12:39:22.444Z,82.87
2016-12-06T12:40:34.059Z,82.91
2016-12-06T12:41:46.282Z,82.87
2016-12-06T12:42:58.095Z,82.4
2016-12-06T12:44:09.811Z,82.87
2016-12-06T12:45:21.114Z,83.06
2016-12-06T12:46:32.626Z,83.06
2016-12-06T12:47:44.662Z,83.06
2016-12-06T12:48:56.416Z,83.15
2016-12-06T12:50:07.838Z,83.44
2016-12-06T12:51:19.632Z,83.72
2016-12-06T12:52:31.003Z,83.44
2016-12-06T12:53:42.811Z,83.53
2016-12-06T12:54:54.744Z,84.01
2016-12-06T12:56:06.577Z,84.2
2016-12-06T12:57:17.891Z,83.63
2016-12-06T12:58:29.605Z,83.63
2016-12-06T12:59:41.280Z,83.53
2016-12-06T13:00:52.695Z,83.25
2016-12-06T13:02:04.061Z,83.82
2016-12-06T13:03:15.411Z,83.82
2016-12-06T13:04:26.700Z,83.82
2016-12-06T13:05:38.479Z,83.44
2016-12-06T13:06:50.454Z,83.72
2016-12-06T13:08:01.820Z,83.63
2016-12-06T13:09:13.275Z,83.82
2016-12-06T13:10:27.021Z,83.72
2016-12-06T13:11:38.602Z,83.25
2016-12-06T13:12:50.274Z,83.82
2016-12-06T13:14:01.604Z,84.48
2016-12-06T13:15:13.209Z,83.72
2016-12-06T13:16:24.780Z,83.53
2016-12-06T13:19:03.354Z,83.82
2016-12-06T13:20:14.935Z,84.01
2016-12-06T13:21:26.817Z,83.53
2016-12-06T13:22:38.452Z,83.34
2016-12-06T13:23:50.068Z,83.34
2016-12-06T13:25:02.025Z,83.53
2016-12-06T13:26:13.374Z,83.82
2016-12-06T13:27:25.478Z,83.44
2016-12-06T13:28:37.023Z,83.82
2016-12-06T13:30:03.786Z,84.2
2016-12-06T13:31:15.424Z,84.77
2016-12-06T13:32:26.770Z,84.86
2016-12-06T13:33:38.921Z,84.29
2016-12-06T13:34:50.641Z,84.58
2016-12-06T13:36:03.015Z,84.2
2016-12-06T13:37:14.834Z,84.39
2016-12-06T13:38:26.980Z,84.48
2016-12-06T13:39:38.491Z,84.29
2016-12-06T13:40:49.785Z,84.67
2016-12-06T13:42:01.332Z,84.29
2016-12-06T13:43:12.954Z,84.67
2016-12-06T13:44:24.463Z,84.2
2016-12-06T13:45:35.901Z,84.29
2016-12-06T13:46:47.267Z,84.58
2016-12-06T13:47:59.508Z,85.05
2016-12-06T13:49:11.267Z,85.05
2016-12-06T13:50:22.735Z,85.05
2016-12-06T13:51:34.521Z,84.58
2016-12-06T13:52:45.980Z,84.77
2016-12-06T13:53:57.767Z,84.77
2016-12-06T13:55:09.110Z,84.58
2016-12-06T13:56:20.842Z,84.67
2016-12-06T13:57:32.624Z,84.48
2016-12-06T13:58:44.232Z,84.48
2016-12-06T13:59:56.223Z,84.67
2016-12-06T14:01:07.830Z,84.48
2016-12-06T14:02:19.179Z,84.77
2016-12-06T14:03:31.058Z,84.58
2016-12-06T14:04:43.066Z,84.77
2016-12-06T14:05:55.253Z,85.24
2016-12-06T14:07:07.146Z,84.95
2016-12-06T14:08:18.641Z,85.05
2016-12-06T14:09:30.176Z,85.05
2016-12-06T14:10:41.865Z,85.05
2016-12-06T14:11:54.036Z,85.05
2016-12-06T14:13:05.707Z,85.05
2016-12-06T14:14:17.142Z,85.05
2016-12-06T14:15:28.821Z,85.14
2016-12-06T14:16:40.250Z,85.33
2016-12-06T14:17:52.655Z,85.05
2016-12-06T14:19:04.952Z,85.24
2016-12-06T14:20:16.220Z,85.8
2016-12-06T14:21:27.643Z,85.71
2016-12-06T14:22:39.414Z,85.71
2016-12-06T14:23:51.444Z,85.9
2016-12-06T14:25:05.093Z,85.8
2016-12-06T14:26:16.554Z,85.8
2016-12-06T14:27:27.809Z,86.37
2016-12-06T14:28:39.176Z,85.99
2016-12-06T14:29:51.148Z,85.99
2016-12-06T14:31:03.232Z,86.47
2016-12-06T14:32:15.157Z,86.47
2016-12-06T14:33:26.534Z,86.56
2016-12-06T14:34:37.997Z,86.66
2016-12-06T14:35:49.621Z,86.56
2016-12-06T14:37:01.209Z,86.37
2016-12-06T14:38:13.165Z,86.56
2016-12-06T14:39:24.969Z,87.13
2016-12-06T14:40:37.012Z,86.28
2016-12-06T14:41:48.731Z,86.85
2016-12-06T14:43:00.028Z,87.13
2016-12-06T14:44:11.327Z,87.23
2016-12-06T14:45:22.642Z,87.08
2016-12-06T14:46:33.986Z,87.18
2016-12-06T14:47:45.990Z,86.71
2016-12-06T14:48:57.636Z,87.08
2016-12-06T14:50:09.179Z,86.99
2016-12-06T14:51:21.012Z,87.08
2016-12-06T14:52:32.559Z,89.73
2016-12-06T14:53:44.888Z,91.39
2016-12-06T14:54:56.438Z,88.74
2016-12-06T14:56:08.071Z,87.23
2016-12-06T14:57:19.617Z,87.23
2016-12-06T14:58:30.980Z,86.66
2016-12-06T14:59:42.621Z,86.66
2016-12-06T15:00:54.347Z,86.75
2016-12-06T15:02:06.016Z,86.99
2016-12-06T15:03:17.961Z,86.99
2016-12-06T15:04:31.630Z,86.9
2016-12-06T15:05:43.350Z,86.8
2016-12-06T15:06:55.080Z,87.37
2016-12-06T15:08:07.894Z,87.46
2016-12-06T15:09:19.304Z,87.46
2016-12-06T15:10:31.605Z,87.84
2016-12-06T15:11:43.347Z,87.37
2016-12-06T15:12:54.630Z,87.37
2016-12-06T15:14:06.012Z,87.27
2016-12-06T15:15:17.320Z,87.46
2016-12-06T15:16:28.839Z,87.65
2016-12-06T15:17:40.398Z,88.41
2016-12-06T15:18:51.868Z,88.5
2016-12-06T15:20:03.567Z,88.41
2016-12-06T15:21:15.154Z,88.12
2016-12-06T15:22:26.426Z,88.41
2016-12-06T15:23:38.125Z,88.31
2016-12-06T15:24:49.725Z,88.5
2016-12-06T15:26:01.118Z,88.5
2016-12-06T15:27:12.627Z,89.26
2016-12-06T15:28:24.356Z,88.6
2016-12-06T15:29:35.908Z,88.6
2016-12-06T15:30:47.822Z,88.88
2016-12-06T15:32:00.637Z,88.6
2016-12-06T15:33:12.081Z,88.41
2016-12-06T15:34:23.443Z,89.17
2016-12-06T15:35:35.053Z,88.88
2016-12-06T15:36:47.010Z,88.79
2016-12-06T15:37:58.386Z,88.5
2016-12-06T15:39:11.989Z,88.31
2016-12-06T15:40:23.631Z,88.98
2016-12-06T15:41:35.261Z,88.6